createdAt,value
2023-02-27T00:01:52.897Z,71.11
2023-02-27T00:04:19.295Z,71.24
2023-02-27T00:06:45.843Z,70.84
2023-02-27T00:09:12.232Z,71.05
2023-02-27T00:11:38.816Z,70.76
2023-02-27T00:14:05.826Z,70.27
2023-02-27T00:16:32.402Z,71.03
2023-02-27T00:19:01.131Z,70.49
2023-02-27T00:21:28.033Z,70.46
2023-02-27T00:23:55.379Z,70.49
2023-02-27T00:26:21.899Z,70.77
2023-02-27T00:28:48.325Z,70.71
2023-02-27T00:31:14.866Z,70.18
2023-02-27T00:33:41.304Z,70.47
2023-02-27T00:36:07.827Z,70.46
2023-02-27T00:38:34.726Z,70.47
2023-02-27T00:41:01.166Z,70.68
2023-02-27T00:43:27.596Z,69.84
2023-02-27T00:45:54.010Z,70.16
2023-02-27T00:48:20.568Z,70.47
2023-02-27T00:50:47.119Z,70.09
2023-02-27T00:53:13.586Z,70.18
2023-02-27T00:55:40.000Z,70.68
2023-02-27T00:58:06.428Z,70.43
2023-02-27T01:00:32.788Z,70.08
2023-02-27T01:02:59.200Z,70.39
2023-02-27T01:05:25.806Z,70.41
2023-02-27T01:07:52.209Z,70.24
2023-02-27T01:10:18.677Z,71.14
2023-02-27T01:12:45.235Z,70.62
2023-02-27T01:15:12.060Z,70.65
2023-02-27T01:17:38.767Z,70.25
2023-02-27T01:20:07.205Z,69.78
2023-02-27T01:22:34.108Z,70.40
2023-02-27T01:25:00.884Z,69.71
2023-02-27T01:27:27.668Z,70.35
2023-02-27T01:29:54.028Z,70.36
2023-02-27T01:32:20.612Z,70.49
2023-02-27T01:34:47.175Z,70.45
2023-02-27T01:37:13.776Z,70.19
2023-02-27T01:39:40.191Z,70.59
2023-02-27T01:42:20.818Z,70.41
2023-02-27T01:45:12.008Z,70.66
2023-02-27T01:47:41.997Z,70.83
2023-02-27T01:50:09.600Z,70.88
2023-02-27T01:52:37.685Z,70.70
2023-02-27T01:55:08.543Z,70.70
2023-02-27T01:57:36.035Z,70.49
2023-02-27T02:00:04.236Z,70.61
2023-02-27T02:02:37.628Z,71.23
2023-02-27T02:07:48.931Z,70.83
2023-02-27T02:10:16.478Z,70.74
2023-02-27T02:12:44.924Z,71.54
2023-02-27T02:15:11.486Z,71.10
2023-02-27T02:17:53.073Z,71.78
2023-02-27T02:21:07.808Z,71.86
2023-02-27T02:24:10.226Z,72.02
2023-02-27T02:26:59.487Z,72.16
2023-02-27T02:29:38.331Z,71.91
2023-02-27T02:32:18.204Z,72.19
2023-02-27T02:35:02.953Z,72.06
2023-02-27T02:37:48.097Z,72.06
2023-02-27T02:40:33.630Z,72.41
2023-02-27T02:43:14.905Z,71.97
2023-02-27T02:45:54.589Z,72.24
2023-02-27T02:48:30.837Z,72.43
2023-02-27T02:51:02.267Z,72.04
2023-02-27T02:53:48.593Z,72.48
2023-02-27T02:56:24.398Z,72.39
2023-02-27T02:59:13.786Z,72.42
2023-02-27T03:01:53.901Z,73.02
2023-02-27T03:04:40.214Z,72.66
2023-02-27T03:07:14.370Z,73.17
2023-02-27T03:09:54.112Z,73.12
2023-02-27T03:12:23.670Z,73.32
2023-02-27T03:15:03.381Z,73.46
2023-02-27T03:17:36.094Z,73.08
2023-02-27T03:20:08.240Z,73.46
2023-02-27T03:22:40.004Z,72.91
2023-02-27T03:25:10.524Z,72.91
2023-02-27T03:27:45.212Z,73.47
2023-02-27T03:30:19.932Z,73.00
2023-02-27T03:32:58.918Z,73.18
2023-02-27T03:35:35.813Z,72.75
2023-02-27T03:38:24.554Z,72.78
2023-02-27T03:41:05.275Z,72.96
2023-02-27T03:43:43.573Z,73.10
2023-02-27T03:46:14.523Z,73.49
2023-02-27T03:48:44.662Z,72.87
2023-02-27T03:51:17.577Z,72.78
2023-02-27T03:53:51.924Z,73.30
2023-02-27T03:56:24.209Z,73.45
2023-02-27T03:58:51.655Z,72.65
2023-02-27T04:01:19.207Z,72.84
2023-02-27T04:03:56.612Z,73.37
2023-02-27T04:06:42.993Z,73.13
2023-02-27T04:09:34.924Z,73.18
2023-02-27T04:12:29.140Z,72.65
2023-02-27T04:15:11.549Z,72.20
2023-02-27T04:18:23.964Z,72.48
2023-02-27T04:21:05.213Z,72.19
2023-02-27T04:23:57.938Z,72.60
2023-02-27T04:26:42.226Z,72.53
2023-02-27T04:29:23.214Z,72.39
2023-02-27T04:31:59.597Z,72.54
2023-02-27T04:34:36.196Z,72.24
2023-02-27T04:37:10.642Z,72.86
2023-02-27T04:39:44.357Z,72.80
2023-02-27T04:42:16.525Z,72.72
2023-02-27T04:44:44.897Z,72.76
2023-02-27T04:47:14.102Z,72.95
2023-02-27T04:49:45.944Z,72.80
2023-02-27T04:52:18.636Z,72.98
2023-02-27T04:55:05.867Z,72.90
2023-02-27T04:57:38.345Z,73.31
2023-02-27T05:00:09.270Z,72.83
2023-02-27T05:02:39.912Z,72.94
2023-02-27T05:05:11.787Z,73.07
2023-02-27T05:07:44.361Z,73.17
2023-02-27T05:10:34.245Z,72.93
2023-02-27T05:13:10.374Z,73.39
2023-02-27T05:15:51.838Z,72.74
2023-02-27T05:18:22.203Z,73.07
2023-02-27T05:21:16.004Z,72.46
2023-02-27T05:24:09.464Z,72.78
2023-02-27T05:26:50.882Z,72.85
2023-02-27T05:29:27.992Z,73.10
2023-02-27T05:32:03.716Z,72.90
2023-02-27T05:34:34.176Z,72.97
2023-02-27T05:37:17.927Z,72.92
2023-02-27T05:39:47.006Z,72.60
2023-02-27T05:42:20.573Z,72.82
2023-02-27T05:44:55.496Z,72.52
2023-02-27T05:47:26.942Z,72.84
2023-02-27T05:49:59.787Z,73.12
2023-02-27T05:52:27.846Z,73.33
2023-02-27T05:55:04.150Z,72.74
2023-02-27T05:57:40.739Z,73.21
2023-02-27T06:00:37.757Z,73.32
2023-02-27T06:03:04.333Z,73.22
2023-02-27T06:05:30.939Z,73.32
2023-02-27T06:07:57.396Z,73.09
2023-02-27T06:10:23.817Z,73.63
2023-02-27T06:12:50.331Z,73.17
2023-02-27T06:15:18.321Z,73.47
2023-02-27T06:17:44.740Z,73.43
2023-02-27T06:20:11.771Z,73.29
2023-02-27T06:22:38.166Z,73.17
2023-02-27T06:25:04.917Z,73.58
2023-02-27T06:27:31.373Z,73.22
2023-02-27T06:29:57.805Z,73.77
2023-02-27T06:32:25.663Z,73.73
2023-02-27T06:34:52.904Z,73.60
2023-02-27T06:37:19.335Z,74.04
2023-02-27T06:39:45.655Z,73.58
2023-02-27T06:42:12.069Z,73.50
2023-02-27T06:44:38.392Z,73.54
2023-02-27T06:47:04.865Z,74.34
2023-02-27T06:49:31.857Z,73.93
2023-02-27T06:51:58.405Z,73.69
2023-02-27T06:54:24.795Z,73.94
2023-02-27T06:56:51.918Z,73.86
2023-02-27T06:59:18.482Z,73.82
2023-02-27T07:01:44.982Z,73.98
2023-02-27T07:04:15.639Z,73.85
2023-02-27T07:07:34.108Z,73.97
2023-02-27T07:09:28.628Z,74.30
2023-02-27T07:11:55.049Z,74.11
2023-02-27T07:14:21.665Z,74.38
2023-02-27T07:16:50.926Z,73.64
2023-02-27T07:19:18.555Z,73.88
2023-02-27T07:21:45.331Z,73.67
2023-02-27T07:24:11.867Z,73.95
2023-02-27T07:26:38.676Z,73.81
2023-02-27T07:29:06.017Z,73.90
2023-02-27T07:31:33.134Z,74.45
2023-02-27T07:33:59.632Z,74.69
2023-02-27T07:36:26.305Z,74.57
2023-02-27T07:38:52.895Z,74.20
2023-02-27T07:41:30.030Z,74.01
2023-02-27T07:43:57.234Z,73.86
2023-02-27T07:46:24.721Z,74.57
2023-02-27T07:48:51.221Z,74.44
2023-02-27T07:51:17.639Z,73.94
2023-02-27T07:53:44.057Z,74.05
2023-02-27T07:56:10.457Z,74.13
2023-02-27T07:58:36.907Z,74.23
2023-02-27T08:01:03.325Z,74.66
2023-02-27T08:03:29.658Z,74.04
2023-02-27T08:05:56.169Z,74.28
2023-02-27T08:08:22.586Z,74.40
2023-02-27T08:10:50.025Z,74.55
2023-02-27T08:13:20.528Z,74.57
2023-02-27T08:15:47.277Z,74.50
2023-02-27T08:18:13.769Z,74.48
2023-02-27T08:20:40.197Z,74.18
2023-02-27T08:23:06.998Z,74.47
2023-02-27T08:25:33.600Z,74.83
2023-02-27T08:27:59.982Z,74.59
2023-02-27T08:30:26.397Z,74.41
2023-02-27T08:32:53.083Z,74.35
2023-02-27T08:35:19.874Z,74.73
2023-02-27T08:37:46.225Z,74.93
2023-02-27T08:40:13.275Z,74.38
2023-02-27T08:42:39.747Z,74.87
2023-02-27T08:45:06.701Z,74.08
2023-02-27T08:47:33.133Z,74.74
2023-02-27T08:49:59.527Z,74.52
2023-02-27T08:52:25.917Z,74.84
2023-02-27T08:54:52.249Z,74.21
2023-02-27T08:57:18.642Z,74.92
2023-02-27T08:59:45.131Z,74.88
2023-02-27T09:02:11.893Z,74.51
2023-02-27T09:04:38.336Z,75.18
2023-02-27T09:07:04.826Z,74.79
2023-02-27T09:09:31.775Z,74.56
2023-02-27T09:11:58.156Z,74.70
2023-02-27T09:14:24.534Z,74.11
2023-02-27T09:16:50.940Z,73.73
2023-02-27T09:19:17.302Z,73.96
2023-02-27T09:21:43.667Z,74.15
2023-02-27T09:24:19.615Z,73.71
2023-02-27T09:26:47.618Z,73.62
2023-02-27T09:29:14.630Z,73.72
2023-02-27T09:31:41.026Z,74.07
2023-02-27T09:34:07.763Z,72.83
2023-02-27T09:36:34.145Z,72.84
2023-02-27T09:39:00.506Z,72.53
2023-02-27T09:41:48.267Z,72.54
2023-02-27T09:44:43.558Z,72.53
2023-02-27T09:47:16.360Z,72.21
2023-02-27T09:50:05.245Z,71.16
2023-02-27T09:52:34.493Z,71.80
2023-02-27T09:55:01.836Z,71.09
2023-02-27T09:57:47.110Z,71.33
2023-02-27T10:00:35.304Z,70.80
2023-02-27T10:03:39.510Z,69.63
2023-02-27T10:06:44.270Z,69.37
2023-02-27T10:09:36.556Z,68.98
2023-02-27T10:12:02.822Z,68.83
2023-02-27T10:14:41.520Z,67.80
2023-02-27T10:17:22.454Z,67.77
2023-02-27T10:19:51.226Z,66.91
2023-02-27T10:22:33.328Z,65.57
2023-02-27T10:25:21.283Z,64.56
2023-02-27T10:27:58.571Z,65.02
2023-02-27T10:30:30.519Z,63.23
2023-02-27T10:33:03.045Z,63.84
2023-02-27T10:35:35.556Z,63.95
2023-02-27T10:38:08.312Z,63.71
2023-02-27T10:40:38.559Z,62.36
2023-02-27T10:43:06.412Z,62.69
2023-02-27T10:45:34.095Z,61.60
2023-02-27T10:48:04.858Z,61.70
2023-02-27T10:50:37.734Z,61.13
2023-02-27T10:53:07.704Z,60.13
2023-02-27T10:55:40.544Z,58.71
2023-02-27T10:58:07.450Z,59.16
2023-02-27T11:00:46.472Z,58.50
2023-02-27T11:03:22.850Z,58.93
2023-02-27T11:05:55.500Z,58.78
2023-02-27T11:08:27.435Z,58.65
2023-02-27T11:11:06.416Z,58.74
2023-02-27T11:13:36.145Z,56.75
2023-02-27T11:16:09.781Z,56.42
2023-02-27T11:18:39.110Z,57.41
2023-02-27T11:21:28.451Z,57.28
2023-02-27T11:24:18.101Z,57.81
2023-02-27T11:26:56.336Z,58.20
2023-02-27T11:29:22.746Z,57.63
2023-02-27T11:32:00.631Z,57.69
2023-02-27T11:34:39.249Z,56.99
2023-02-27T11:37:18.571Z,55.64
2023-02-27T11:39:52.168Z,56.07
2023-02-27T11:42:30.485Z,56.38
2023-02-27T11:45:01.185Z,56.99
2023-02-27T11:47:33.423Z,57.13
2023-02-27T11:50:04.117Z,56.49
2023-02-27T11:52:43.314Z,55.85
2023-02-27T11:55:18.000Z,55.78
2023-02-27T11:57:47.155Z,56.73
2023-02-27T12:00:31.015Z,56.40
2023-02-27T12:03:22.052Z,56.80
2023-02-27T12:05:55.641Z,55.36
2023-02-27T12:08:52.474Z,56.49
2023-02-27T12:11:32.436Z,56.34
2023-02-27T12:14:30.874Z,55.79
2023-02-27T12:17:09.923Z,56.47
2023-02-27T12:19:42.991Z,55.87
2023-02-27T12:22:21.482Z,55.01
2023-02-27T12:24:53.778Z,55.76
2023-02-27T12:27:25.023Z,55.33
2023-02-27T12:29:58.927Z,55.46
2023-02-27T12:32:42.893Z,56.26
2023-02-27T12:35:27.730Z,55.91
2023-02-27T12:37:54.565Z,55.71
2023-02-27T12:40:36.722Z,55.54
2023-02-27T12:43:31.427Z,55.96
2023-02-27T12:46:06.647Z,56.20
2023-02-27T12:49:02.701Z,56.13
2023-02-27T12:51:34.916Z,55.22
2023-02-27T12:54:30.135Z,55.97
2023-02-27T12:57:16.196Z,55.92
2023-02-27T12:59:51.581Z,55.71
2023-02-27T13:02:30.205Z,55.25
2023-02-27T13:05:18.374Z,55.60
2023-02-27T13:08:03.521Z,55.42
2023-02-27T13:10:49.036Z,56.19
2023-02-27T13:13:27.411Z,55.35
2023-02-27T13:16:13.672Z,56.46
2023-02-27T13:19:06.666Z,56.76
2023-02-27T13:21:39.935Z,57.25
2023-02-27T13:24:26.633Z,56.55
2023-02-27T13:27:08.189Z,57.80
2023-02-27T13:29:39.846Z,58.00
2023-02-27T13:32:41.656Z,57.97
2023-02-27T13:35:30.602Z,57.90
2023-02-27T13:37:58.926Z,58.21
2023-02-27T13:40:30.148Z,58.12
2023-02-27T13:43:00.330Z,57.80
2023-02-27T13:45:50.329Z,57.69
2023-02-27T13:48:40.200Z,57.34
2023-02-27T13:51:10.790Z,57.55
2023-02-27T13:53:38.211Z,58.10
2023-02-27T13:56:23.392Z,57.51
2023-02-27T13:58:50.590Z,57.96
2023-02-27T14:01:23.696Z,57.00
2023-02-27T14:04:02.804Z,56.19
2023-02-27T14:06:29.821Z,55.23
2023-02-27T14:09:08.802Z,54.74
2023-02-27T14:11:40.892Z,55.06
2023-02-27T14:14:28.600Z,55.25
2023-02-27T14:16:56.591Z,55.93
2023-02-27T14:19:22.872Z,56.41
2023-02-27T14:21:56.117Z,56.82
2023-02-27T14:24:28.226Z,57.17
2023-02-27T14:26:56.050Z,56.37
2023-02-27T14:29:30.956Z,56.65
2023-02-27T14:32:07.011Z,55.91
2023-02-27T14:34:36.084Z,55.90
2023-02-27T14:37:10.065Z,56.01
2023-02-27T14:39:38.178Z,56.22
2023-02-27T14:42:27.670Z,55.91
2023-02-27T14:44:54.825Z,55.74
2023-02-27T14:47:32.170Z,55.88
2023-02-27T14:49:59.341Z,55.51
2023-02-27T14:52:27.961Z,55.80
2023-02-27T14:55:07.383Z,55.61
2023-02-27T14:57:33.823Z,55.61
2023-02-27T15:00:00.227Z,55.60
2023-02-27T15:02:30.625Z,55.39
2023-02-27T15:05:03.213Z,55.97
2023-02-27T15:07:32.971Z,56.21
2023-02-27T15:10:04.170Z,55.80
2023-02-27T15:12:32.321Z,56.03
2023-02-27T15:15:02.516Z,56.46
2023-02-27T15:17:38.891Z,55.99
2023-02-27T15:20:25.528Z,56.28
2023-02-27T15:22:52.028Z,56.21
2023-02-27T15:25:37.522Z,56.41
2023-02-27T15:28:30.833Z,56.47
2023-02-27T15:30:57.797Z,55.96
2023-02-27T15:33:29.261Z,56.02
2023-02-27T15:35:56.639Z,56.64
2023-02-27T15:38:26.318Z,57.59
2023-02-27T15:40:53.001Z,57.54
2023-02-27T15:43:21.698Z,56.42
2023-02-27T15:45:48.938Z,56.81
2023-02-27T15:48:16.906Z,56.27
2023-02-27T15:50:46.593Z,55.45
2023-02-27T15:53:22.185Z,55.85
2023-02-27T15:55:53.492Z,56.15
2023-02-27T15:58:29.770Z,56.37
2023-02-27T16:01:07.269Z,56.32
2023-02-27T16:03:41.500Z,56.44
2023-02-27T16:06:28.318Z,56.84
2023-02-27T16:09:02.814Z,57.05
2023-02-27T16:11:31.728Z,57.21
2023-02-27T16:13:59.038Z,57.24
2023-02-27T16:16:38.859Z,56.26
2023-02-27T16:19:29.259Z,56.55
2023-02-27T16:22:14.080Z,56.53
2023-02-27T16:24:40.955Z,56.78
2023-02-27T16:27:16.816Z,56.82
2023-02-27T16:29:45.199Z,57.13
2023-02-27T16:32:30.100Z,57.25
2023-02-27T16:35:06.029Z,57.18
2023-02-27T16:37:39.537Z,57.41
2023-02-27T16:40:22.896Z,57.93
2023-02-27T16:42:50.376Z,58.14
2023-02-27T16:45:18.196Z,57.92
2023-02-27T16:47:48.232Z,58.23
2023-02-27T16:50:20.576Z,58.40
2023-02-27T16:52:46.953Z,58.56
2023-02-27T16:55:13.623Z,58.48
2023-02-27T16:57:40.193Z,58.60
2023-02-27T17:00:10.142Z,58.78
2023-02-27T17:02:36.593Z,58.35
2023-02-27T17:05:03.098Z,58.96
2023-02-27T17:07:30.506Z,58.92
2023-02-27T17:09:57.037Z,59.47
2023-02-27T17:12:23.415Z,59.21
2023-02-27T17:14:49.810Z,59.39
2023-02-27T17:17:16.175Z,59.46
2023-02-27T17:19:42.629Z,59.66
2023-02-27T17:22:09.052Z,59.84
2023-02-27T17:24:37.295Z,60.00
2023-02-27T17:27:03.800Z,60.66
2023-02-27T17:29:30.332Z,60.89
2023-02-27T17:31:57.502Z,61.09
2023-02-27T17:34:24.340Z,61.36
2023-02-27T17:36:50.720Z,61.75
2023-02-27T17:39:17.156Z,61.99
2023-02-27T17:41:44.311Z,61.63
2023-02-27T17:44:11.621Z,61.46
2023-02-27T17:46:38.506Z,61.32
2023-02-27T17:49:05.636Z,61.51
2023-02-27T17:51:32.704Z,61.74
2023-02-27T17:54:04.897Z,61.90
2023-02-27T17:56:31.818Z,62.30
2023-02-27T17:58:58.808Z,62.69
2023-02-27T18:01:25.951Z,62.49
2023-02-27T18:03:54.249Z,62.54
2023-02-27T18:06:21.401Z,62.54
2023-02-27T18:08:48.364Z,62.76
2023-02-27T18:11:18.527Z,62.93
2023-02-27T18:13:45.438Z,63.15
2023-02-27T18:16:12.124Z,62.94
2023-02-27T18:18:40.451Z,63.13
2023-02-27T18:21:10.365Z,63.41
2023-02-27T18:23:37.517Z,63.88
2023-02-27T18:26:04.272Z,64.23
2023-02-27T18:28:31.190Z,63.99
2023-02-27T18:30:57.884Z,64.40
2023-02-27T18:33:24.374Z,64.27
2023-02-27T18:35:51.742Z,64.25
2023-02-27T18:38:18.156Z,63.97
2023-02-27T18:40:44.779Z,64.23
2023-02-27T18:43:11.547Z,64.33
2023-02-27T18:45:38.388Z,64.45
2023-02-27T18:48:05.134Z,64.36
2023-02-27T18:50:31.588Z,64.45
2023-02-27T18:53:00.181Z,64.32
2023-02-27T18:55:26.633Z,64.64
2023-02-27T18:57:53.022Z,64.75
2023-02-27T19:00:21.741Z,64.49
2023-02-27T19:02:48.109Z,64.46
2023-02-27T19:05:14.746Z,64.87
2023-02-27T19:07:42.267Z,64.66
2023-02-27T19:10:09.752Z,64.77
2023-02-27T19:12:36.337Z,64.56
2023-02-27T19:15:03.576Z,65.06
2023-02-27T19:17:29.993Z,65.07
2023-02-27T19:19:56.424Z,65.08
2023-02-27T19:22:22.807Z,65.37
2023-02-27T19:24:49.964Z,65.69
2023-02-27T19:27:17.163Z,65.35
2023-02-27T19:29:43.575Z,65.69
2023-02-27T19:32:10.011Z,65.94
2023-02-27T19:34:36.400Z,65.70
2023-02-27T19:37:02.971Z,65.81
2023-02-27T19:39:29.323Z,65.83
2023-02-27T19:41:56.495Z,65.91
2023-02-27T19:44:23.525Z,66.03
2023-02-27T19:46:52.068Z,66.11
2023-02-27T19:49:20.605Z,66.08
2023-02-27T19:51:47.253Z,66.22
2023-02-27T19:54:15.361Z,66.56
2023-02-27T19:56:42.267Z,66.67
2023-02-27T19:59:11.197Z,66.79
2023-02-27T20:01:38.909Z,66.49
2023-02-27T20:04:06.768Z,66.73
2023-02-27T20:06:41.721Z,66.52
2023-02-27T20:09:10.903Z,66.72
2023-02-27T20:11:37.328Z,66.87
2023-02-27T20:14:04.357Z,67.05
2023-02-27T20:16:35.410Z,66.56
2023-02-27T20:19:06.332Z,67.50
2023-02-27T20:21:34.247Z,66.71
2023-02-27T20:24:01.184Z,66.95
2023-02-27T20:26:36.041Z,67.13
2023-02-27T20:29:12.944Z,67.14
2023-02-27T20:31:41.600Z,67.16
2023-02-27T20:34:11.313Z,67.24
2023-02-27T20:36:39.335Z,67.74
2023-02-27T20:39:06.755Z,67.69
2023-02-27T20:41:36.957Z,67.46
2023-02-27T20:44:05.102Z,67.78
2023-02-27T20:46:31.528Z,67.65
2023-02-27T20:49:00.382Z,67.73
2023-02-27T20:51:30.701Z,67.60
2023-02-27T20:53:59.404Z,68.01
2023-02-27T20:56:32.023Z,67.72
2023-02-27T20:58:59.650Z,68.14
2023-02-27T21:01:27.152Z,67.98
2023-02-27T21:03:56.034Z,68.10
2023-02-27T21:06:23.887Z,68.21
2023-02-27T21:08:53.812Z,68.15
2023-02-27T21:11:27.104Z,68.18
2023-02-27T21:13:55.174Z,68.27
2023-02-27T21:16:21.739Z,68.03
2023-02-27T21:18:51.871Z,68.24
2023-02-27T21:21:24.691Z,68.32
2023-02-27T21:23:51.941Z,68.46
2023-02-27T21:26:27.762Z,68.53
2023-02-27T21:28:57.454Z,68.60
2023-02-27T21:31:26.061Z,68.93
2023-02-27T21:33:54.013Z,68.61
2023-02-27T21:36:28.552Z,69.35
2023-02-27T21:38:59.899Z,69.19
2023-02-27T21:41:26.837Z,68.97
2023-02-27T21:43:57.931Z,69.38
2023-02-27T21:46:24.386Z,69.30
2023-02-27T21:48:50.845Z,69.31
2023-02-27T21:51:21.549Z,69.73
2023-02-27T21:53:57.381Z,69.48
2023-02-27T21:56:24.143Z,69.27
2023-02-27T21:58:50.687Z,69.40
2023-02-27T22:01:19.751Z,69.36
2023-02-27T22:03:47.497Z,69.66
2023-02-27T22:06:14.941Z,69.98
2023-02-27T22:08:42.190Z,69.48
2023-02-27T22:11:09.498Z,70.08
2023-02-27T22:13:36.303Z,70.06
2023-02-27T22:16:12.705Z,69.62
2023-02-27T22:18:40.337Z,69.93
2023-02-27T22:21:17.079Z,70.40
2023-02-27T22:23:44.578Z,70.02
2023-02-27T22:26:23.969Z,70.46
2023-02-27T22:28:51.792Z,70.07
2023-02-27T22:31:23.776Z,70.38
2023-02-27T22:33:52.510Z,70.66
2023-02-27T22:36:24.175Z,70.88
2023-02-27T22:38:51.252Z,71.19
2023-02-27T22:41:20.386Z,71.15
2023-02-27T22:43:47.073Z,71.06
2023-02-27T22:46:20.186Z,71.31
2023-02-27T22:48:46.579Z,71.31
2023-02-27T22:51:14.884Z,70.92
2023-02-27T22:53:43.377Z,71.33
2023-02-27T22:56:13.075Z,71.49
2023-02-27T22:58:40.721Z,71.76
2023-02-27T23:01:14.656Z,71.78
2023-02-27T23:03:41.925Z,71.69
2023-02-27T23:06:11.446Z,71.57
2023-02-27T23:08:38.529Z,71.73
2023-02-27T23:11:05.494Z,71.33
2023-02-27T23:13:34.783Z,71.44
2023-02-27T23:16:02.357Z,72.07
2023-02-27T23:18:28.812Z,71.83
2023-02-27T23:20:55.163Z,72.14
2023-02-27T23:23:22.841Z,72.02
2023-02-27T23:25:49.250Z,72.20
2023-02-27T23:28:15.621Z,71.85
2023-02-27T23:30:42.006Z,71.86
2023-02-27T23:33:08.379Z,72.24
2023-02-27T23:35:34.848Z,72.43
2023-02-27T23:38:01.256Z,71.92
2023-02-27T23:40:28.313Z,72.35
2023-02-27T23:42:54.868Z,72.24
2023-02-27T23:45:24.113Z,72.13
2023-02-27T23:47:57.996Z,72.02
2023-02-27T23:50:30.520Z,72.33
2023-02-27T23:52:59.108Z,71.91
2023-02-27T23:55:28.302Z,72.12
2023-02-27T23:57:56.273Z,72.69
